Latest Weather Observations for Albury

IDN60801

Issued at 10:05 pm EDT Sunday 23 November 2014 (issued every 30 minutes, with the page automatically refreshed every 10 minutes)

About weather observations | Map of weather stations | Latest weather observations for NSW | Other Formats
Station Details ID: 072160 Name: ALBURY AIRPORT AWS Lat: -36.07 Lon: 146.95 Height: 163.5 m
Data from the previous 72 hours. | See also: Recent months at Albury
Date/Time
EDT
Temp
°C
App
Temp
°C
Dew
Point
Rel
Hum
%
Delta-T
°C
Wind Press
QNH
hPa
Press
MSL
hPa
Rain
since 9 am
mm
Dir
 
Spd
km/h
Gust
km/h
Spd
kts
Gust
kts
23/10:00pm 27.9 26.4 10.6 34 9.8 SW 9 13 5 7 1012.4 1012.0 0.0
23/09:30pm 28.0 25.9 11.1 35 9.7 W 13 17 7 9 1012.6 1012.2 0.0
23/09:00pm 29.0 26.5 11.1 33 10.3 W 15 20 8 11 1012.5 1012.1 0.0
23/08:30pm 29.7 27.0 11.7 33 10.5 W 17 20 9 11 1011.9 1011.5 0.0
23/08:00pm 29.9 28.2 12.3 33 10.4 W 13 17 7 9 1010.7 1010.2 0.0
23/07:30pm 31.1 27.9 12.0 31 11.3 W 20 32 11 17 1010.4 1009.9 0.0
23/07:00pm 32.3 28.2 11.5 28 12.3 W 24 35 13 19 1010.0 1009.5 0.0
23/06:30pm 33.3 28.9 11.8 27 12.8 W 26 39 14 21 1009.8 1009.3 0.0
23/06:00pm 33.3 28.9 11.8 27 12.8 W 26 35 14 19 1009.5 1009.0 0.0
23/05:30pm 33.6 28.6 10.9 25 13.3 WNW 28 39 15 21 1009.5 1009.0 0.0
23/05:00pm 35.1 30.3 10.2 22 14.6 W 26 33 14 18 1008.9 1008.5 0.0
23/04:30pm 35.5 31.1 10.5 22 14.7 W 24 35 13 19 1009.1 1008.7 0.0
23/04:00pm 35.0 30.7 10.8 23 14.3 WNW 24 32 13 17 1009.0 1008.6 0.0
23/03:30pm 35.2 30.2 10.9 23 14.3 W 28 32 15 17 1009.2 1008.8 0.0
23/03:00pm 35.0 30.7 12.0 25 13.8 W 26 35 14 19 1009.1 1008.7 0.0
23/02:30pm 34.1 33.9 14.6 31 12.1 SW 9 19 5 10 1009.4 1008.9 0.0
23/02:00pm 33.3 31.9 14.4 32 11.7 SSW 15 22 8 12 1009.5 1009.0 0.0
23/01:30pm 32.8 32.3 13.9 31 11.6 WNW 9 13 5 7 1009.9 1009.4 0.0
23/01:00pm 32.3 32.6 13.5 32 11.4 N 4 11 2 6 1010.2 1009.7 0.0
23/12:30pm 31.8 31.8 13.5 32 11.1 E 6 13 3 7 1010.4 1009.9 0.0
23/12:00pm 29.7 29.2 15.0 40 9.0 S 11 17 6 9 1010.4 1009.9 0.0
23/11:30am 29.9 29.9 16.3 43 8.5 S 11 19 6 10 1010.8 1010.3 0.0
23/11:00am 28.0 28.4 15.3 46 7.8 S 7 13 4 7 1011.0 1010.5 0.0
23/10:30am 27.1 26.6 14.8 47 7.5 SE 11 15 6 8 1011.3 1010.8 0.0
23/10:00am 26.1 26.4 16.9 57 5.8 SE 11 13 6 7 1011.4 1010.9 0.0
23/09:30am 24.5 25.1 16.7 61 4.8 S 9 15 5 8 1011.7 1011.2 0.0
23/09:00am 23.3 23.6 16.1 64 4.4 S 9 13 5 7 1011.8 1011.3 0.6
23/08:30am 22.7 23.4 16.0 66 4.1 SSE 7 11 4 6 1011.5 1011.0 0.6
23/08:00am 21.7 22.1 16.2 71 3.3 SSE 9 13 5 7 1011.3 1010.8 0.6
23/07:30am 20.2 21.0 15.8 76 2.6 SSE 6 11 3 6 1010.9 1010.4 0.6
23/07:00am 19.2 19.5 15.9 81 2.0 SSE 9 11 5 6 1010.8 1010.3 0.6
23/06:30am 18.2 19.6 15.5 84 1.6 S 2 6 1 3 1010.4 1009.9 0.6
23/06:00am 17.5 18.6 15.5 88 1.2 S 4 7 2 4 1010.0 1009.5 0.6
23/05:30am 17.6 18.2 15.9 90 1.0 SE 7 9 4 5 1009.7 1009.2 0.6
23/05:00am 17.9 18.2 16.1 89 1.1 SE 9 13 5 7 1010.1 1009.6 0.6
23/04:30am 18.8 18.6 16.6 87 1.3 S 13 15 7 8 1010.8 1010.3 0.6
23/04:00am 19.2 17.9 17.3 89 1.2 ENE 20 22 11 12 1010.1 1009.6 0.4
23/03:30am 19.1 19.1 16.3 84 1.7 N 11 13 6 7 1011.1 1010.6 0.0
23/03:00am 20.3 20.8 14.9 71 3.2 SE 6 7 3 4 1010.6 1010.1 0.0
23/02:30am 20.5 20.9 14.8 70 3.4 SE 6 11 3 6 1010.4 1009.9 0.0
23/02:00am 20.1 20.6 15.1 73 3.0 N 6 7 3 4 1010.6 1010.1 0.0
23/01:30am 21.1 21.2 13.8 63 4.2 SSE 6 9 3 5 1010.7 1010.2 0.0
23/01:00am 21.0 20.4 14.6 67 3.8 S 11 17 6 9 1011.2 1010.7 0.0
23/12:30am 23.2 23.3 13.9 56 5.5 ESE 6 9 3 5 1011.6 1011.1 0.0
23/12:00am 22.5 21.8 13.3 56 5.3 S 9 11 5 6 1011.9 1011.5 0.0
 
Date/Time
EDT
Temp
°C
App
Temp
°C
Dew
Point
Rel
Hum
%
Delta-T
°C
Wind Press
QNH
hPa
Press
MSL
hPa
Rain
since 9 am
mm
Dir
 
Spd
km/h
Gust
km/h
Spd
kts
Gust
kts
22/11:30pm 24.4 23.6 13.0 49 6.6 SSW 9 17 5 9 1012.2 1011.8 0.0
22/11:00pm 25.0 23.3 12.6 46 7.2 SSW 13 20 7 11 1012.5 1012.1 0.0
22/10:30pm 25.3 24.8 12.2 44 7.6 W 6 9 3 5 1011.9 1011.5 0.0
22/10:00pm 25.9 25.1 10.9 39 8.5 WSW 6 9 3 5 1011.9 1011.5 0.0
22/09:30pm 26.8 24.0 10.1 35 9.4 WSW 15 19 8 10 1011.8 1011.3 0.0
22/09:00pm 27.3 23.9 9.2 32 10.0 W 17 24 9 13 1011.5 1011.0 0.0
22/08:30pm 28.4 23.3 7.6 27 11.3 WNW 24 33 13 18 1011.1 1010.6 0.0
22/08:00pm 27.5 27.3 8.9 31 10.3 CALM 0 0 0 0 1010.4 1009.9 0.0
22/07:30pm 28.1 26.8 9.9 32 10.2 NNE 7 9 4 5 1009.9 1009.4 0.0
22/07:00pm 29.2 28.1 9.8 30 11.0 NE 6 9 3 5 1009.9 1009.4 0.0
22/06:30pm 29.9 28.2 7.7 25 12.2 E 6 7 3 4 1009.8 1009.3 0.0
22/06:00pm 30.0 28.4 7.8 25 12.2 S 6 7 3 4 1009.5 1009.0 0.0
22/05:30pm 30.9 29.1 5.3 20 13.6 SSW 4 7 2 4 1009.0 1008.6 0.0
22/05:00pm 31.4 27.8 5.0 19 14.0 W 13 20 7 11 1009.4 1008.9 0.0
22/04:30pm 32.2 28.4 5.7 19 14.2 WSW 15 19 8 10 1010.2 1009.7 0.0
22/04:00pm 31.8 26.9 5.3 19 14.1 W 20 28 11 15 1010.0 1009.5 0.0
22/03:30pm 32.4 28.0 6.6 20 14.1 WSW 19 24 10 13 1010.3 1009.8 0.0
22/03:00pm 32.7 29.3 7.5 21 14.0 W 15 32 8 17 1010.6 1010.1 0.0
22/02:30pm 31.3 27.8 7.1 22 13.2 SSW 15 20 8 11 1011.0 1010.5 0.0
22/02:00pm 31.0 28.2 8.7 25 12.5 S 13 20 7 11 1011.5 1011.0 0.0
22/01:30pm 30.0 27.3 9.0 27 11.8 SSW 13 20 7 11 1011.7 1011.2 0.0
22/01:00pm 29.8 27.2 9.3 28 11.5 SSE 13 19 7 10 1011.6 1011.1 0.0
22/12:30pm 28.5 25.6 9.7 31 10.6 S 15 22 8 12 1011.8 1011.3 0.0
22/12:00pm 28.4 26.9 10.6 33 10.2 SSE 9 19 5 10 1012.0 1011.6 0.0
22/11:30am 27.3 25.7 10.1 34 9.7 ESE 9 15 5 8 1012.0 1011.6 0.0
22/11:00am 26.3 25.4 10.5 37 8.9 SE 6 11 3 6 1012.4 1012.0 0.0
22/10:30am 25.2 23.7 10.6 40 8.2 E 9 15 5 8 1012.5 1012.1 0.0
22/10:00am 23.7 23.0 12.0 48 6.7 SE 7 11 4 6 1012.9 1012.5 0.0
22/09:30am 22.1 21.0 11.8 52 5.8 SE 9 13 5 7 1013.1 1012.7 0.0
22/09:00am 20.1 18.9 11.6 58 4.7 ESE 9 11 5 6 1013.4 1013.0 0.0
22/08:30am 18.6 18.8 10.4 59 4.4 CALM 0 6 0 3 1013.4 1013.0 0.0
22/08:00am 16.7 15.8 9.4 62 3.8 S 4 6 2 3 1013.3 1012.9 0.0
22/07:30am 15.8 14.7 10.1 69 3.0 SSE 6 9 3 5 1013.3 1012.9 0.0
22/07:00am 15.0 14.5 9.4 69 2.9 E 2 7 1 4 1013.1 1012.7 0.0
22/06:30am 13.7 12.9 9.6 76 2.1 E 4 6 2 3 1012.9 1012.5 0.0
22/06:00am 13.2 13.1 9.3 77 2.0 CALM 0 0 0 0 1012.2 1011.8 0.0
22/05:30am 12.8 12.6 8.9 77 2.0 CALM 0 0 0 0 1011.9 1011.5 0.0
22/05:00am 13.7 13.6 9.4 75 2.2 CALM 0 0 0 0 1011.6 1011.1 0.0
22/04:30am 14.1 14.0 9.3 73 2.5 CALM 0 0 0 0 1011.4 1010.9 0.0
22/04:00am 14.0 13.8 9.0 72 2.6 CALM 0 0 0 0 1011.1 1010.6 0.0
22/03:30am 14.6 14.4 9.0 69 2.9 CALM 0 0 0 0 1011.3 1010.8 0.0
22/03:00am 14.7 14.5 9.1 69 2.9 CALM 0 0 0 0 1011.4 1010.9 0.0
22/02:30am 15.8 15.3 9.5 66 3.3 SE 2 6 1 3 1011.4 1010.9 0.0
22/02:00am 15.3 15.1 9.2 67 3.2 CALM 0 0 0 0 1011.5 1011.0 0.0
22/01:30am 15.9 15.7 8.9 63 3.6 CALM 0 0 0 0 1011.7 1011.2 0.0
22/01:00am 16.0 15.8 9.0 63 3.6 CALM 0 0 0 0 1011.8 1011.3 0.0
22/12:30am 16.2 16.1 9.4 64 3.6 CALM 0 0 0 0 1012.0 1011.6 0.0
22/12:00am 17.3 17.1 9.0 58 4.3 CALM 0 0 0 0 1012.0 1011.6 0.0
 
Date/Time
EDT
Temp
°C
App
Temp
°C
Dew
Point
Rel
Hum
%
Delta-T
°C
Wind Press
QNH
hPa
Press
MSL
hPa
Rain
since 9 am
mm
Dir
 
Spd
km/h
Gust
km/h
Spd
kts
Gust
kts
21/11:30pm 18.1 17.1 8.9 55 4.8 SSE 4 6 2 3 1012.0 1011.6 0.0
21/11:00pm 18.4 16.7 7.5 49 5.6 NE 6 7 3 4 1011.8 1011.3 0.0
21/10:30pm 18.9 17.3 8.0 49 5.6 E 6 7 3 4 1011.9 1011.5 0.0
21/10:00pm 21.1 20.1 5.5 36 7.8 CALM 0 0 0 0 1011.6 1011.1 0.0
21/09:30pm 22.3 20.1 5.3 33 8.5 NW 6 9 3 5 1011.3 1010.8 0.0
21/09:00pm 22.9 19.3 4.9 31 9.0 WNW 13 17 7 9 1010.9 1010.4 0.0
21/08:30pm 23.6 20.0 5.0 30 9.4 WNW 13 17 7 9 1010.5 1010.0 0.0
21/08:00pm 25.0 21.1 5.2 28 10.1 WNW 15 20 8 11 1010.3 1009.8 0.0
21/07:30pm 26.4 22.1 5.4 26 10.8 WNW 17 22 9 12 1010.0 1009.5 0.0
21/07:00pm 27.1 22.8 5.4 25 11.3 W 17 22 9 12 1009.5 1009.0 0.0
21/06:30pm 27.9 23.5 7.2 27 11.1 WNW 20 28 11 15 1008.9 1008.5 0.0
21/06:00pm 28.3 24.2 8.6 29 10.9 WNW 20 28 11 15 1008.7 1008.3 0.0
21/05:30pm 28.6 24.6 8.3 28 11.2 W 19 28 10 15 1008.7 1008.3 0.0
21/05:00pm 29.0 25.2 9.2 29 11.1 W 19 28 10 15 1008.7 1008.3 0.0
21/04:30pm 28.8 24.1 7.9 27 11.4 WNW 22 32 12 17 1008.6 1008.2 0.0
21/04:00pm 28.7 23.8 8.4 28 11.2 WNW 24 37 13 20 1008.9 1008.5 0.0
21/03:30pm 29.5 24.9 9.6 29 11.2 WNW 24 35 13 19 1009.0 1008.6 0.0
21/03:00pm 28.8 23.5 8.5 28 11.2 WNW 26 35 14 19 1009.1 1008.7 0.0
21/02:30pm 28.7 23.9 8.9 29 11.0 WNW 24 35 13 19 1009.0 1008.6 0.0
21/02:00pm 28.0 24.1 8.8 30 10.6 W 19 28 10 15 1009.1 1008.7 0.0
21/01:30pm 27.3 22.4 10.1 34 9.7 WSW 26 30 14 16 1009.2 1008.8 0.0
21/01:00pm 27.7 23.7 10.4 34 9.8 W 22 33 12 18 1009.1 1008.7 0.0
21/12:30pm 27.2 23.2 11.7 38 9.0 W 24 35 13 19 1009.5 1009.0 0.0
21/12:00pm 26.8 24.3 14.2 46 7.6 NW 20 32 11 17 1009.6 1009.1 0.0
21/11:30am 26.3 22.9 13.8 46 7.4 NW 24 35 13 19 1009.7 1009.2 0.0
21/11:00am 25.7 23.3 14.5 50 6.7 W 20 32 11 17 1009.7 1009.2 0.0
21/10:30am 25.7 24.0 15.7 54 6.1 NW 19 33 10 18 1009.5 1009.0 0.0
21/10:00am 24.7 23.5 15.1 55 5.8 NW 15 22 8 12 1009.4 1008.9 0.0
21/09:30am 24.1 22.5 15.1 57 5.4 WNW 17 24 9 13 1009.6 1009.1 0.0
21/09:00am 23.5 21.7 14.5 57 5.4 W 17 24 9 13 1009.7 1009.2 0.0
21/08:30am 23.6 21.6 14.0 55 5.7 WNW 17 24 9 13 1009.7 1009.2 0.0
21/08:00am 23.1 21.3 13.3 54 5.7 W 15 19 8 10 1009.2 1008.8 0.0
21/07:30am 22.5 22.3 13.6 57 5.2 NNW 7 9 4 5 1008.8 1008.4 0.0
21/07:00am 21.7 20.7 13.3 59 4.9 WNW 11 15 6 8 1008.6 1008.2 0.0
21/06:30am 21.2 20.1 13.1 60 4.7 NW 11 15 6 8 1008.3 1007.9 0.0
21/06:00am 21.4 19.5 13.1 59 4.8 WNW 15 22 8 12 1008.3 1007.9 0.0
21/05:30am 21.8 19.1 12.9 57 5.1 WNW 19 28 10 15 1007.9 1007.5 0.0
21/05:00am 21.5 19.2 12.9 58 4.9 WNW 17 26 9 14 1007.4 1007.0 0.0
21/04:30am 21.5 19.0 12.4 56 5.2 WNW 17 24 9 13 1007.1 1006.7 0.0
21/04:00am 20.7 19.5 12.7 60 4.6 WNW 11 15 6 8 1006.9 1006.5 0.0
21/03:30am 20.6 20.3 12.8 61 4.5 W 6 7 3 4 1006.2 1005.7 0.0
21/03:00am 20.1 19.3 12.8 63 4.2 NW 9 13 5 7 1006.1 1005.6 0.0
21/02:30am 21.6 21.4 13.0 58 4.9 N 6 9 3 5 1006.1 1005.6 0.0
21/02:00am 22.3 22.8 11.7 51 6.0 CALM 0 7 0 4 1006.3 1005.8 0.0
21/01:30am 22.5 21.9 11.6 50 6.1 S 6 7 3 4 1006.5 1006.0 0.0
21/01:00am 22.5 21.0 11.9 51 6.0 S 11 15 6 8 1006.9 1006.5 0.0
21/12:30am 23.1 21.2 11.8 49 6.4 SE 13 19 7 10 1007.2 1006.8 0.0
21/12:00am 23.5 21.6 11.9 48 6.6 SE 13 17 7 9 1007.9 1007.5 0.0
 
Date/Time
EDT
Temp
°C
App
Temp
°C
Dew
Point
Rel
Hum
%
Delta-T
°C
Wind Press
QNH
hPa
Press
MSL
hPa
Rain
since 9 am
mm
Dir
 
Spd
km/h
Gust
km/h
Spd
kts
Gust
kts
20/11:30pm 24.1 22.2 11.8 46 7.0 SSW 13 17 7 9 1009.2 1008.8 0.0
20/11:00pm 24.6 20.9 11.5 44 7.5 WSW 22 33 12 18 1009.0 1008.6 0.0
20/10:39pm 25.2 19.3 11.0 41 8.0 WSW 33 56 18 30 1008.7 1008.3 0.0
20/10:30pm 25.7 19.5 9.9 37 8.8 WSW 33 48 18 26 1008.6 1008.2 0.0
20/10:24pm 26.2 20.7 9.1 34 9.4 W 28 46 15 25 1008.5 1008.1 0.0

Other Formats:

Comma delimited format used in spreadsheet applications
http://www.bom.gov.au/fwo/IDN60801/IDN60801.95896.axf

JavaScript Object Notation format (JSON) in row-major order
http://www.bom.gov.au/fwo/IDN60801/IDN60801.95896.json